Time;durP1;ratioP1;P1;durP2;ratioP2;P2;SDS_P1;SDS_P2;PMS_P1;PMS_P2;Temp;Humidity;BMP_temperature;BMP_pressure;BME280_temperature;BME280_humidity;BME280_pressure;Samples;Min_cycle;Max_cycle;Signal;HPM_P1;HPM_P2
2022/06/25 00:00:21;;;;;;;;;;;;;;;27.80;33.22;100329.91;5077539;28;1091;-28
2022/06/25 00:02:46;;;;;;;;;;;;;;;27.79;33.33;100322.84;5076643;28;1288;-29
2022/06/25 00:05:30;;;;;;;;;;;;;;;27.82;33.15;100335.97;5080474;28;1919;-28
2022/06/25 00:07:55;;;;;;;;;;;;;;;27.80;33.18;100330.75;5077636;28;1087;-29
2022/06/25 00:10:21;;;;;;;;;;;;;;;27.83;33.04;100326.81;5078229;28;1084;-26
2022/06/25 00:12:46;;;;;;;;;;;;;;;27.78;32.89;100338.22;5076064;28;1008;-26
2022/06/25 00:15:11;;;;;;;;;;;;;;;27.75;33.40;100325.94;5081704;28;1032;-28
2022/06/25 00:17:37;;;;;;;;;;;;;;;27.84;33.19;100323.91;5089508;28;1421;-30
2022/06/25 00:20:03;;;;;;;;;;;;;;;27.81;33.23;100316.19;5081955;28;1079;-28
2022/06/25 00:22:28;;;;;;;;;;;;;;;27.78;33.24;100319.31;5083788;28;961;-27
2022/06/25 00:24:53;;;;;;;;;;;;;;;27.77;33.15;100314.09;5081616;28;1976;-28
2022/06/25 00:27:18;;;;;;;;;;;;;;;27.77;33.21;100314.94;5083546;28;1011;-29
2022/06/25 00:29:44;;;;;;;;;;;;;;;27.81;33.23;100315.38;5083911;28;1074;-26
2022/06/25 00:32:09;;;;;;;;;;;;;;;27.80;33.09;100311.84;5081523;28;988;-27
2022/06/25 00:34:35;;;;;;;;;;;;;;;27.90;32.87;100319.59;5085296;28;1218;-28
2022/06/25 00:37:01;;;;;;;;;;;;;;;27.86;32.88;100315.63;5088482;28;925;-28
2022/06/25 00:39:26;;;;;;;;;;;;;;;27.84;32.88;100306.88;5088895;28;1036;-27
2022/06/25 00:41:51;;;;;;;;;;;;;;;27.83;32.81;100307.91;5087987;28;980;-26
2022/06/25 00:44:16;;;;;;;;;;;;;;;27.78;32.82;100307.69;5084887;28;1909;-27
2022/06/25 00:46:45;;;;;;;;;;;;;;;27.77;33.11;100308.69;5087766;28;996;-27
2022/06/25 00:49:10;;;;;;;;;;;;;;;27.77;32.87;100312.25;5082686;28;1083;-29
2022/06/25 00:51:35;;;;;;;;;;;;;;;27.81;32.96;100318.91;5089086;28;1250;-27
2022/06/25 00:54:03;;;;;;;;;;;;;;;27.77;32.82;100316.81;5113881;27;1044;-27
2022/06/25 00:56:28;;;;;;;;;;;;;;;27.81;32.85;100316.19;5087136;28;1397;-27
2022/06/25 00:58:54;;;;;;;;;;;;;;;27.85;33.02;100314.78;5112520;27;1067;-28
2022/06/25 01:01:19;;;;;;;;;;;;;;;27.80;32.76;100316.41;5119095;27;1226;-31
2022/06/25 01:03:44;;;;;;;;;;;;;;;27.75;33.00;100315.16;5113127;28;1901;-31
2022/06/25 01:06:10;;;;;;;;;;;;;;;27.75;32.98;100307.03;5084340;28;1036;-27
2022/06/25 01:08:35;;;;;;;;;;;;;;;27.73;33.08;100313.66;5080378;28;1127;-28
2022/06/25 01:11:00;;;;;;;;;;;;;;;27.73;33.18;100314.50;5078200;28;1525;-26
2022/06/25 01:13:26;;;;;;;;;;;;;;;27.75;32.99;100306.19;5094300;28;1027;-28
2022/06/25 01:15:51;;;;;;;;;;;;;;;27.78;32.86;100310.38;5089751;28;1017;-26
2022/06/25 01:18:16;;;;;;;;;;;;;;;27.75;32.74;100309.75;5086998;28;1592;-28
2022/06/25 01:20:45;;;;;;;;;;;;;;;27.72;33.09;100312.84;5089514;28;925;-26
2022/06/25 01:23:10;;;;;;;;;;;;;;;27.78;33.05;100313.09;5082742;28;1897;-26
2022/06/25 01:25:36;;;;;;;;;;;;;;;27.75;32.93;100306.19;5081842;28;984;-28
2022/06/25 01:28:02;;;;;;;;;;;;;;;27.78;32.58;100313.09;5087886;28;867;-27
2022/06/25 01:30:27;;;;;;;;;;;;;;;27.78;32.53;100308.50;5080167;28;1080;-28
2022/06/25 01:32:52;;;;;;;;;;;;;;;27.77;32.56;100301.44;5079924;28;1163;-30
2022/06/25 01:35:18;;;;;;;;;;;;;;;27.74;32.72;100307.22;5081844;28;1029;-30
2022/06/25 01:37:43;;;;;;;;;;;;;;;27.69;33.08;100299.72;5090122;28;1002;-26
2022/06/25 01:40:09;;;;;;;;;;;;;;;27.76;32.64;100302.44;5093101;28;929;-30
2022/06/25 01:45:18;;;;;;;;;;;;;;;27.72;33.00;100315.53;5083738;28;1910;-26
2022/06/25 01:47:43;;;;;;;;;;;;;;;27.74;32.48;100313.47;5125647;27;1024;-27
2022/06/25 01:50:08;;;;;;;;;;;;;;;27.74;32.66;100315.34;5086824;28;1147;-28
2022/06/25 01:52:34;;;;;;;;;;;;;;;27.71;32.82;100316.56;5088816;28;1000;-30
2022/06/25 01:54:59;;;;;;;;;;;;;;;27.80;32.52;100316.41;5093036;28;1129;-26
2022/06/25 01:57:24;;;;;;;;;;;;;;;27.70;32.68;100314.06;5079104;28;953;-26
2022/06/25 01:59:51;;;;;;;;;;;;;;;27.69;32.61;100307.84;5078049;28;1233;-26
2022/06/25 02:02:16;;;;;;;;;;;;;;;27.69;32.70;100309.69;5091031;28;968;-29
2022/06/25 02:04:42;;;;;;;;;;;;;;;27.66;32.65;100318.97;5086916;28;1914;-30
2022/06/25 02:07:07;;;;;;;;;;;;;;;27.74;32.79;100304.53;5084868;28;1025;-29
2022/06/25 02:09:32;;;;;;;;;;;;;;;27.79;32.76;100312.88;5089483;28;987;-26
2022/06/25 02:11:57;;;;;;;;;;;;;;;27.74;32.53;100312.63;5084874;28;972;-26
2022/06/25 02:14:24;;;;;;;;;;;;;;;27.67;33.02;100311.72;5089822;28;1000;-27
2022/06/25 02:16:49;;;;;;;;;;;;;;;27.69;32.77;100310.53;5083086;28;1067;-30
2022/06/25 02:22:17;;;;;;;;;;;;;;;27.65;33.03;100313.78;5085411;28;925;-28
2022/06/25 02:24:42;;;;;;;;;;;;;;;27.65;32.87;100314.63;5082191;28;1898;-27
2022/06/25 02:27:08;;;;;;;;;;;;;;;27.70;32.65;100312.19;5079943;28;1051;-26
2022/06/25 02:29:33;;;;;;;;;;;;;;;27.70;32.77;100322.16;5079050;28;1175;-26
2022/06/25 02:31:59;;;;;;;;;;;;;;;27.74;32.71;100321.56;5080431;28;1063;-28
2022/06/25 02:34:24;;;;;;;;;;;;;;;27.73;32.75;100319.91;5077167;28;1135;-28
2022/06/25 02:39:52;;;;;;;;;;;;;;;27.67;32.69;100327.94;5082673;28;1259;-29
2022/06/25 02:42:18;;;;;;;;;;;;;;;27.70;32.15;100335.66;5082186;28;984;-29
2022/06/25 02:44:43;;;;;;;;;;;;;;;27.77;32.76;100335.72;5086555;28;1901;-29
2022/06/25 02:47:08;;;;;;;;;;;;;;;27.70;32.21;100332.97;5080005;28;960;-29
2022/06/25 02:49:33;;;;;;;;;;;;;;;27.73;32.54;100336.13;5084950;28;1094;-28
2022/06/25 02:51:59;;;;;;;;;;;;;;;27.83;32.24;100351.13;5082900;28;972;-27
2022/06/25 02:54:24;;;;;;;;;;;;;;;27.18;32.42;100265.63;5078180;28;1091;-26
2022/06/25 02:59:46;;;;;;;;;;;;;;;27.69;32.96;100351.06;5083756;28;1717;-28
2022/06/25 03:02:11;;;;;;;;;;;;;;;27.46;33.18;100356.69;5086348;28;944;-28
2022/06/25 03:04:37;;;;;;;;;;;;;;;26.07;36.23;100354.66;5081969;28;1914;-31
2022/06/25 03:07:02;;;;;;;;;;;;;;;26.71;35.97;100363.19;5083096;28;1114;-29
2022/06/25 03:09:27;;;;;;;;;;;;;;;27.20;34.73;100358.94;5094168;28;824;-26
2022/06/25 03:11:53;;;;;;;;;;;;;;;27.49;33.99;100354.41;5082769;28;930;-28
2022/06/25 03:14:18;;;;;;;;;;;;;;;27.55;33.78;100358.19;5087365;28;1111;-27
2022/06/25 03:16:44;;;;;;;;;;;;;;;27.48;33.67;100358.13;5080812;28;1055;-27
2022/06/25 03:19:09;;;;;;;;;;;;;;;27.34;34.57;100365.28;5084603;28;1170;-26
2022/06/25 03:21:35;;;;;;;;;;;;;;;27.09;35.21;100362.16;5082942;28;904;-30
2022/06/25 03:24:00;;;;;;;;;;;;;;;26.86;35.33;100365.84;5079953;28;1898;-27
2022/06/25 03:26:25;;;;;;;;;;;;;;;26.81;35.61;100361.00;5090071;28;1004;-27
2022/06/25 03:28:51;;;;;;;;;;;;;;;26.90;35.45;100367.13;5077744;28;1020;-27
2022/06/25 03:31:16;;;;;;;;;;;;;;;26.90;35.57;100367.13;5076977;28;1163;-24
2022/06/25 03:33:41;;;;;;;;;;;;;;;27.13;34.99;100361.56;5086853;28;965;-26
2022/06/25 03:36:07;;;;;;;;;;;;;;;27.23;34.79;100371.19;5092757;28;1032;-27
2022/06/25 03:38:32;;;;;;;;;;;;;;;27.18;34.44;100374.47;5083333;28;1150;-26
2022/06/25 03:43:41;;;;;;;;;;;;;;;25.92;37.34;100374.34;5083639;28;1902;-26
2022/06/25 03:46:07;;;;;;;;;;;;;;;23.53;43.59;100380.47;5090772;28;1058;-25
2022/06/25 03:48:32;;;;;;;;;;;;;;;23.14;45.08;100376.53;5087881;28;1256;-27
2022/06/25 03:50:57;;;;;;;;;;;;;;;22.50;46.62;100380.53;5084314;28;1016;-26
2022/06/25 03:53:23;;;;;;;;;;;;;;;22.97;46.74;100376.50;5084224;28;1036;-26
2022/06/25 03:55:48;;;;;;;;;;;;;;;22.00;49.82;100377.56;5093727;28;1193;-24
2022/06/25 03:58:13;;;;;;;;;;;;;;;22.02;49.60;100384.44;5085590;28;1063;-24
2022/06/25 04:00:39;;;;;;;;;;;;;;;21.80;49.53;100382.28;5084570;28;1187;-25
2022/06/25 04:03:04;;;;;;;;;;;;;;;23.51;45.69;100385.16;5085304;28;1905;-27
2022/06/25 04:05:29;;;;;;;;;;;;;;;24.89;40.14;100383.50;5092958;28;1051;-26
2022/06/25 04:07:55;;;;;;;;;;;;;;;25.51;37.11;100387.13;5084515;28;1087;-29
2022/06/25 04:10:20;;;;;;;;;;;;;;;25.19;37.93;100397.16;5088753;28;1016;-26
2022/06/25 04:12:45;;;;;;;;;;;;;;;25.14;37.42;100396.84;5089894;28;1049;-26
2022/06/25 04:15:10;;;;;;;;;;;;;;;25.76;37.56;100397.72;5094456;28;2522;-26
2022/06/25 04:17:36;;;;;;;;;;;;;;;25.96;36.13;100396.38;5089941;28;2249;-28
2022/06/25 04:20:02;;;;;;;;;;;;;;;25.97;35.11;100396.19;5088897;28;2126;-27
2022/06/25 04:22:27;;;;;;;;;;;;;;;25.92;34.52;100399.41;5090149;28;1830;-26
2022/06/25 04:24:52;;;;;;;;;;;;;;;24.94;37.71;100399.97;5096728;28;2084;-27
2022/06/25 04:30:01;;;;;;;;;;;;;;;25.47;36.79;100402.00;5078684;28;2045;-29
2022/06/25 04:32:27;;;;;;;;;;;;;;;25.83;35.46;100413.16;5090322;28;1099;-28
2022/06/25 04:34:53;;;;;;;;;;;;;;;25.60;34.92;100414.00;5086888;28;1122;-28
2022/06/25 04:37:18;;;;;;;;;;;;;;;25.02;38.67;100418.78;5087277;28;962;-28
2022/06/25 04:39:43;;;;;;;;;;;;;;;25.71;38.29;100418.97;5085349;28;1155;-27
2022/06/25 04:42:09;;;;;;;;;;;;;;;26.02;36.81;100426.13;5095560;28;1027;-30
2022/06/25 04:44:34;;;;;;;;;;;;;;;26.15;36.87;100427.34;5085145;28;1969;-28
2022/06/25 04:46:59;;;;;;;;;;;;;;;24.99;40.91;100424.47;5088875;28;980;-32
2022/06/25 04:49:24;;;;;;;;;;;;;;;25.66;38.52;100438.38;5090387;28;1071;-28
2022/06/25 04:51:50;;;;;;;;;;;;;;;25.92;38.20;100434.44;5081805;28;1535;-29
2022/06/25 04:54:15;;;;;;;;;;;;;;;26.36;38.15;100442.00;5075991;28;1028;-26
2022/06/25 04:56:41;;;;;;;;;;;;;;;24.43;41.41;100436.97;5087234;28;1062;-29
2022/06/25 04:59:06;;;;;;;;;;;;;;;25.04;40.26;100432.88;5092370;28;2629;-27
2022/06/25 05:01:31;;;;;;;;;;;;;;;25.52;41.27;100436.44;5084321;28;1063;-29
2022/06/25 05:03:57;;;;;;;;;;;;;;;26.14;37.22;100445.34;5082986;28;1917;-27
2022/06/25 05:06:22;;;;;;;;;;;;;;;25.49;38.05;100440.31;5086325;28;1032;-27
2022/06/25 05:08:48;;;;;;;;;;;;;;;24.83;40.82;100446.91;5091783;28;964;-29
2022/06/25 05:11:13;;;;;;;;;;;;;;;25.90;39.00;100452.69;5087888;28;1027;-28
2022/06/25 05:13:38;;;;;;;;;;;;;;;26.15;38.59;100449.75;5088729;28;1003;-30
2022/06/25 05:16:04;;;;;;;;;;;;;;;26.33;38.46;100453.97;5083267;28;1138;-27
2022/06/25 05:18:29;;;;;;;;;;;;;;;24.13;44.81;100451.94;5088147;28;1020;-30
2022/06/25 05:20:54;;;;;;;;;;;;;;;25.24;40.45;100459.34;5096504;28;948;-29
2022/06/25 05:23:20;;;;;;;;;;;;;;;25.87;38.89;100450.34;5088620;28;1909;-27
2022/06/25 05:25:45;;;;;;;;;;;;;;;24.54;45.18;100451.88;5079263;28;1016;-28
2022/06/25 05:28:11;;;;;;;;;;;;;;;25.58;39.87;100440.25;5087041;28;1214;-26
2022/06/25 05:30:36;;;;;;;;;;;;;;;25.58;38.91;100448.34;5082828;28;2710;-26
2022/06/25 05:33:01;;;;;;;;;;;;;;;24.58;42.70;100447.84;5081263;28;1158;-27
2022/06/25 05:35:27;;;;;;;;;;;;;;;25.73;39.61;100440.34;5084358;28;1059;-26
2022/06/25 05:37:52;;;;;;;;;;;;;;;25.13;40.16;100444.44;5081572;28;1135;-27
2022/06/25 05:40:17;;;;;;;;;;;;;;;25.05;41.20;100442.63;5085799;28;980;-29
2022/06/25 05:42:43;;;;;;;;;;;;;;;25.62;38.17;100433.50;5084953;28;865;-29
2022/06/25 05:45:08;;;;;;;;;;;;;;;24.98;40.20;100427.34;5097363;28;1970;-26
2022/06/25 05:47:33;;;;;;;;;;;;;;;25.58;37.27;100437.56;5092745;28;1012;-30
2022/06/25 05:49:59;;;;;;;;;;;;;;;24.74;41.13;100437.19;5094917;28;961;-27
2022/06/25 05:52:24;;;;;;;;;;;;;;;25.59;38.46;100431.19;5083564;28;1005;-27
2022/06/25 05:54:49;;;;;;;;;;;;;;;24.51;42.49;100441.47;5082703;28;968;-26
2022/06/25 05:57:15;;;;;;;;;;;;;;;25.54;38.45;100448.72;5082958;28;1036;-26
2022/06/25 05:59:40;;;;;;;;;;;;;;;25.08;38.73;100441.44;5083297;28;2573;-27
2022/06/25 06:02:06;;;;;;;;;;;;;;;24.69;40.45;100443.94;5085891;28;1127;-26
2022/06/25 06:04:31;;;;;;;;;;;;;;;25.71;37.75;100448.59;5078525;28;1967;-26
2022/06/25 06:06:56;;;;;;;;;;;;;;;24.40;42.05;100447.22;5089103;28;1047;-25
2022/06/25 06:09:21;;;;;;;;;;;;;;;25.14;39.23;100448.78;5089041;28;1056;-25
2022/06/25 06:11:47;;;;;;;;;;;;;;;25.48;37.62;100451.28;5080310;28;969;-24
2022/06/25 06:14:12;;;;;;;;;;;;;;;24.36;41.64;100446.72;5088093;28;996;-26
2022/06/25 06:16:37;;;;;;;;;;;;;;;25.73;40.36;100443.03;5083423;28;976;-32
2022/06/25 06:19:03;;;;;;;;;;;;;;;23.90;45.16;100440.06;5086293;28;1158;-27
2022/06/25 06:21:29;;;;;;;;;;;;;;;25.35;39.11;100433.88;5113860;27;894;-23
2022/06/25 06:23:54;;;;;;;;;;;;;;;24.16;41.82;100430.97;5084695;28;1897;-28
2022/06/25 06:26:19;;;;;;;;;;;;;;;25.35;36.39;100436.56;5090158;28;1000;-41
2022/06/25 06:28:45;;;;;;;;;;;;;;;25.44;35.60;100430.09;5080147;28;1158;-29
2022/06/25 06:31:10;;;;;;;;;;;;;;;24.33;38.06;100426.41;5084555;28;2418;-21
2022/06/25 06:33:36;;;;;;;;;;;;;;;25.34;35.83;100436.75;5084155;28;897;-22
2022/06/25 06:36:01;;;;;;;;;;;;;;;21.05;41.25;100430.59;5091189;28;1225;-22
2022/06/25 06:38:27;;;;;;;;;;;;;;;19.47;46.71;100428.25;5089455;28;1063;-21
2022/06/25 06:40:52;;;;;;;;;;;;;;;19.38;48.89;100433.44;5088038;28;1019;-21
2022/06/25 06:43:17;;;;;;;;;;;;;;;19.56;50.97;100430.06;5091404;28;1905;-21
2022/06/25 06:45:43;;;;;;;;;;;;;;;19.68;51.70;100430.78;5087138;28;1000;-22
2022/06/25 06:48:08;;;;;;;;;;;;;;;20.35;49.15;100429.16;5080204;28;1602;-23
2022/06/25 06:50:33;;;;;;;;;;;;;;;21.31;46.06;100429.84;5086294;28;1142;-21
2022/06/25 06:52:58;;;;;;;;;;;;;;;21.60;44.62;100425.25;5089419;28;980;-21
2022/06/25 06:55:24;;;;;;;;;;;;;;;21.60;44.58;100419.91;5087610;28;1056;-22
2022/06/25 06:57:49;;;;;;;;;;;;;;;21.53;44.39;100423.22;5091161;28;1255;-22
2022/06/25 07:00:17;;;;;;;;;;;;;;;21.67;44.66;100422.81;5090476;28;1842;-21
2022/06/25 07:02:42;;;;;;;;;;;;;;;21.52;44.61;100415.34;5091690;28;1331;-22
2022/06/25 07:05:07;;;;;;;;;;;;;;;21.41;44.75;100416.38;5092290;28;1965;-21
2022/06/25 07:07:33;;;;;;;;;;;;;;;21.36;45.13;100419.53;5093618;28;1170;-21
2022/06/25 07:09:58;;;;;;;;;;;;;;;21.36;44.83;100414.19;5089362;28;980;-22
2022/06/25 07:12:23;;;;;;;;;;;;;;;21.32;45.02;100418.13;5095370;28;1121;-22
2022/06/25 07:14:48;;;;;;;;;;;;;;;21.27;44.98;100423.13;5087503;28;1123;-21
2022/06/25 07:17:14;;;;;;;;;;;;;;;22.78;45.12;100425.91;5089490;28;1012;-21
2022/06/25 07:19:39;;;;;;;;;;;;;;;24.19;41.46;100419.06;5083815;28;1095;-22
2022/06/25 07:22:05;;;;;;;;;;;;;;;22.48;44.80;100428.09;5083202;28;1160;-21
2022/06/25 07:24:30;;;;;;;;;;;;;;;23.41;44.68;100430.97;5082923;28;1968;-21
2022/06/25 07:26:55;;;;;;;;;;;;;;;24.48;41.56;100436.44;5077894;28;988;-21
2022/06/25 07:29:20;;;;;;;;;;;;;;;22.94;44.36;100429.66;5082664;28;2025;-21
2022/06/25 07:31:46;;;;;;;;;;;;;;;22.64;48.54;100435.38;5089057;28;1166;-21
2022/06/25 07:34:12;;;;;;;;;;;;;;;24.47;41.70;100432.09;5090439;28;1213;-21
2022/06/25 07:36:37;;;;;;;;;;;;;;;23.67;42.47;100435.34;5086340;28;902;-21
2022/06/25 07:39:03;;;;;;;;;;;;;;;22.76;44.59;100430.59;5079677;28;1004;-21
2022/06/25 07:41:29;;;;;;;;;;;;;;;22.54;45.24;100430.13;5078599;28;897;-21
2022/06/25 07:43:55;;;;;;;;;;;;;;;22.39;45.47;100425.34;5079878;28;1898;-21
2022/06/25 07:46:20;;;;;;;;;;;;;;;23.88;43.09;100427.78;5085468;28;1058;-22
2022/06/25 07:48:46;;;;;;;;;;;;;;;24.14;41.52;100426.75;5089729;28;1262;-21
2022/06/25 07:53:54;;;;;;;;;;;;;;;23.24;43.82;100440.78;5087516;28;1493;-21
2022/06/25 07:56:20;;;;;;;;;;;;;;;23.37;43.98;100432.28;5088713;28;964;-22
2022/06/25 07:58:45;;;;;;;;;;;;;;;23.55;43.73;100429.47;5084136;28;1050;-21
2022/06/25 08:01:10;;;;;;;;;;;;;;;24.58;41.91;100430.88;5083384;28;2256;-21
2022/06/25 08:03:36;;;;;;;;;;;;;;;25.27;38.86;100429.38;5078316;28;1910;-21
2022/06/25 08:06:01;;;;;;;;;;;;;;;24.70;38.98;100434.88;5083126;28;1176;-22
2022/06/25 08:08:26;;;;;;;;;;;;;;;24.53;39.26;100438.59;5081967;28;1004;-21
2022/06/25 08:10:52;;;;;;;;;;;;;;;24.05;40.89;100429.47;5077635;28;1226;-21
2022/06/25 08:13:17;;;;;;;;;;;;;;;24.46;40.88;100433.09;5078342;28;1427;-22
2022/06/25 08:15:42;;;;;;;;;;;;;;;24.18;40.85;100422.75;5080903;28;879;-22
2022/06/25 08:18:08;;;;;;;;;;;;;;;23.53;42.35;100423.44;5084138;28;977;-21
2022/06/25 08:20:33;;;;;;;;;;;;;;;23.17;43.19;100424.50;5092208;28;1012;-22
2022/06/25 08:22:59;;;;;;;;;;;;;;;22.92;43.81;100423.63;5080131;28;1146;-22
2022/06/25 08:25:24;;;;;;;;;;;;;;;22.82;44.59;100419.19;5078360;28;1906;-22
2022/06/25 08:27:50;;;;;;;;;;;;;;;23.14;45.40;100426.69;5081664;28;872;-23
2022/06/25 08:30:16;;;;;;;;;;;;;;;24.73;40.82;100420.22;5084661;28;1903;-23
2022/06/25 08:32:41;;;;;;;;;;;;;;;25.30;38.89;100422.81;5078953;28;1026;-23
2022/06/25 08:35:06;;;;;;;;;;;;;;;23.81;41.78;100420.41;5087239;28;1035;-23
2022/06/25 08:37:35;;;;;;;;;;;;;;;23.21;42.87;100430.38;5081349;28;1048;-22
2022/06/25 08:40:01;;;;;;;;;;;;;;;23.18;43.52;100431.56;5078901;28;786;-22
2022/06/25 08:42:26;;;;;;;;;;;;;;;23.12;44.02;100424.19;5078111;28;1004;-22
2022/06/25 08:44:51;;;;;;;;;;;;;;;23.02;44.17;100434.19;5077131;28;1955;-22
2022/06/25 08:47:16;;;;;;;;;;;;;;;23.24;47.74;100436.28;5078954;28;977;-22
2022/06/25 08:49:42;;;;;;;;;;;;;;;25.21;40.01;100434.66;5123506;27;1138;-23
2022/06/25 08:52:07;;;;;;;;;;;;;;;24.22;40.93;100424.09;5095570;28;1049;-23
2022/06/25 08:54:33;;;;;;;;;;;;;;;23.67;41.16;100424.59;5117289;27;1237;-23
2022/06/25 08:56:59;;;;;;;;;;;;;;;23.17;42.00;100426.38;5099195;28;1266;-23
2022/06/25 08:59:24;;;;;;;;;;;;;;;23.10;43.20;100426.19;5097546;28;2009;-22
2022/06/25 09:01:49;;;;;;;;;;;;;;;23.02;43.76;100432.38;5090496;28;1079;-23
2022/06/25 09:04:15;;;;;;;;;;;;;;;23.01;44.05;100430.66;5095379;28;1980;-23
2022/06/25 09:06:40;;;;;;;;;;;;;;;23.04;44.16;100438.38;5087957;28;1034;-23
2022/06/25 09:09:06;;;;;;;;;;;;;;;23.23;46.47;100423.00;5090009;28;1120;-23
2022/06/25 09:11:31;;;;;;;;;;;;;;;24.85;39.36;100434.13;5092812;28;1159;-23
2022/06/25 09:14:27;;;;;;;;;;;;;;;24.60;39.41;100428.84;5092793;28;1207;-23
2022/06/25 09:16:56;;;;;;;;;;;;;;;23.80;41.39;100420.56;5088161;28;1230;-23
2022/06/25 09:19:28;;;;;;;;;;;;;;;23.52;42.47;100416.41;5093207;28;963;-23
2022/06/25 09:21:54;;;;;;;;;;;;;;;23.31;42.94;100423.03;5090326;28;1065;-23
2022/06/25 09:24:19;;;;;;;;;;;;;;;23.24;43.36;100422.84;5092736;28;1952;-22
2022/06/25 09:26:51;;;;;;;;;;;;;;;23.24;45.26;100425.53;5082285;28;1048;-23
2022/06/25 09:29:16;;;;;;;;;;;;;;;24.88;39.65;100425.69;5092665;28;1924;-23
2022/06/25 09:31:41;;;;;;;;;;;;;;;24.61;39.88;100416.25;5087921;28;1048;-23
2022/06/25 09:34:07;;;;;;;;;;;;;;;23.82;41.93;100415.88;5093336;28;1288;-23
2022/06/25 09:36:32;;;;;;;;;;;;;;;23.54;41.60;100424.28;5097651;28;1081;-23
2022/06/25 09:38:57;;;;;;;;;;;;;;;23.43;41.27;100422.75;5090290;28;1019;-23
2022/06/25 09:41:23;;;;;;;;;;;;;;;23.21;41.41;100425.00;5081775;28;1047;-23
2022/06/25 09:43:48;;;;;;;;;;;;;;;24.49;38.20;100426.53;5094277;28;1964;-22
2022/06/25 09:46:13;;;;;;;;;;;;;;;25.04;38.90;100423.97;5080920;28;1012;-23
2022/06/25 09:48:40;;;;;;;;;;;;;;;24.37;40.96;100431.44;5085369;28;1045;-22
2022/06/25 09:51:14;;;;;;;;;;;;;;;24.16;40.97;100427.41;5119316;27;1329;-22
2022/06/25 09:53:49;;;;;;;;;;;;;;;23.53;41.80;100422.56;5086267;28;1036;-23
2022/06/25 09:56:15;;;;;;;;;;;;;;;23.06;42.97;100422.13;5087958;28;1020;-22
2022/06/25 09:58:40;;;;;;;;;;;;;;;22.79;43.56;100416.84;5080334;28;1055;-22
2022/06/25 10:01:05;;;;;;;;;;;;;;;23.23;44.94;100414.97;5111964;27;2341;-22
2022/06/25 10:03:31;;;;;;;;;;;;;;;24.87;40.99;100423.19;5122206;27;1979;-22
2022/06/25 10:05:56;;;;;;;;;;;;;;;23.76;42.29;100421.91;5085898;28;992;-22
2022/06/25 10:08:21;;;;;;;;;;;;;;;23.23;43.01;100418.50;5081677;28;1088;-22
2022/06/25 10:10:48;;;;;;;;;;;;;;;22.91;43.48;100425.44;5081082;28;1166;-22
2022/06/25 10:13:13;;;;;;;;;;;;;;;23.46;44.06;100425.09;5078324;28;961;-22
2022/06/25 10:15:39;;;;;;;;;;;;;;;24.92;40.85;100420.84;5086256;28;1056;-22
2022/06/25 10:18:06;;;;;;;;;;;;;;;23.57;42.08;100423.94;5086767;28;941;-22
2022/06/25 10:20:32;;;;;;;;;;;;;;;23.17;47.21;100429.03;5085182;28;972;-22
2022/06/25 10:22:58;;;;;;;;;;;;;;;24.83;40.05;100428.91;5085306;28;858;-23
2022/06/25 10:25:24;;;;;;;;;;;;;;;23.82;42.29;100430.13;5114085;27;1897;-22
2022/06/25 10:27:49;;;;;;;;;;;;;;;23.22;45.72;100434.75;5082908;28;1071;-23
2022/06/25 10:30:15;;;;;;;;;;;;;;;24.52;41.95;100429.72;5079514;28;1047;-22
2022/06/25 10:32:44;;;;;;;;;;;;;;;24.26;42.67;100433.47;5085973;28;1218;-22
2022/06/25 10:35:09;;;;;;;;;;;;;;;23.44;44.11;100443.22;5090245;28;1587;-23
2022/06/25 10:37:53;;;;;;;;;;;;;;;24.02;43.67;100445.94;5083351;28;1052;-23
2022/06/25 10:40:19;;;;;;;;;;;;;;;24.68;44.50;100444.09;5091265;28;1237;-23
2022/06/25 10:42:59;;;;;;;;;;;;;;;24.19;46.37;100454.00;5081138;28;1047;-23
2022/06/25 10:45:24;;;;;;;;;;;;;;;23.85;47.38;100463.91;5082294;28;1897;-23
2022/06/25 10:47:53;;;;;;;;;;;;;;;23.78;49.25;100461.03;5082652;28;969;-22
2022/06/25 10:50:21;;;;;;;;;;;;;;;23.63;49.49;100450.13;5084164;28;1063;-23
2022/06/25 10:53:08;;;;;;;;;;;;;;;23.65;48.52;100450.78;5081869;28;1008;-23
2022/06/25 10:55:33;;;;;;;;;;;;;;;23.88;51.48;100460.88;5078908;28;1090;-23
2022/06/25 10:58:11;;;;;;;;;;;;;;;24.96;48.10;100465.19;5078788;28;1190;-23
2022/06/25 11:00:51;;;;;;;;;;;;;;;24.77;44.75;100461.91;5080987;28;940;-23
2022/06/25 11:03:17;;;;;;;;;;;;;;;24.06;45.72;100455.31;5086361;28;1028;-23
2022/06/25 11:05:43;;;;;;;;;;;;;;;23.89;45.61;100461.72;5085317;28;973;-23
2022/06/25 11:08:09;;;;;;;;;;;;;;;23.85;45.75;100470.13;5077696;28;1071;-24
2022/06/25 11:10:34;;;;;;;;;;;;;;;23.59;45.54;100471.09;5076775;28;1218;-23
2022/06/25 11:13:00;;;;;;;;;;;;;;;23.90;47.16;100471.44;5083473;28;828;-23
2022/06/25 11:15:25;;;;;;;;;;;;;;;25.05;44.99;100471.41;5116821;27;1070;-23
2022/06/25 11:17:50;;;;;;;;;;;;;;;24.54;45.02;100476.09;5116881;27;1005;-23
2022/06/25 11:20:17;;;;;;;;;;;;;;;24.06;45.54;100475.97;5080940;28;1012;-23
2022/06/25 11:22:46;;;;;;;;;;;;;;;23.93;46.74;100468.41;5085500;28;1135;-22
2022/06/25 11:30:39;;;;;;;;;;;;;;;24.22;45.86;100483.22;5108180;27;1043;-23
2022/06/25 11:33:06;;;;;;;;;;;;;;;24.32;49.97;100486.53;5078514;28;997;-23
2022/06/25 11:35:38;;;;;;;;;;;;;;;24.91;46.56;100476.50;5114254;27;1049;-23
2022/06/25 11:38:03;;;;;;;;;;;;;;;24.36;48.07;100472.78;5076749;28;837;-24
2022/06/25 11:40:29;;;;;;;;;;;;;;;24.20;48.52;100471.78;5084213;28;1099;-23
2022/06/25 11:43:04;;;;;;;;;;;;;;;23.95;48.64;100466.41;5086722;28;997;-23
2022/06/25 11:45:31;;;;;;;;;;;;;;;23.74;48.52;100462.34;5084669;28;1901;-22
2022/06/25 11:47:56;;;;;;;;;;;;;;;24.18;50.85;100458.53;5083676;28;1075;-23
2022/06/25 11:50:22;;;;;;;;;;;;;;;25.36;47.69;100459.78;5079712;28;1000;-23
2022/06/25 11:52:47;;;;;;;;;;;;;;;24.89;47.33;100462.34;5075882;28;1024;-23
2022/06/25 11:55:12;;;;;;;;;;;;;;;24.74;46.90;100466.78;5120343;27;976;-23
2022/06/25 11:57:39;;;;;;;;;;;;;;;24.64;46.00;100467.00;5091288;28;1122;-22
2022/06/25 12:00:04;;;;;;;;;;;;;;;24.21;46.76;100477.00;5082013;28;965;-23
2022/06/25 12:02:29;;;;;;;;;;;;;;;24.10;46.25;100474.63;5079847;28;1064;-23
2022/06/25 12:04:59;;;;;;;;;;;;;;;24.31;50.64;100471.44;5080845;28;1902;-23
2022/06/25 12:07:24;;;;;;;;;;;;;;;25.07;48.73;100470.19;5080263;28;1186;-23
2022/06/25 12:09:49;;;;;;;;;;;;;;;25.27;49.85;100474.31;5086975;28;1243;-23
2022/06/25 12:12:17;;;;;;;;;;;;;;;25.23;51.07;100478.34;5115343;27;1343;-23
2022/06/25 12:14:42;;;;;;;;;;;;;;;24.89;48.24;100478.47;5095467;28;1079;-23
2022/06/25 12:17:09;;;;;;;;;;;;;;;24.65;47.39;100469.50;5118417;27;972;-22
2022/06/25 12:19:53;;;;;;;;;;;;;;;24.29;48.83;100470.75;5115662;27;1031;-22
2022/06/25 12:22:18;;;;;;;;;;;;;;;23.95;48.56;100469.09;5087738;28;984;-23
2022/06/25 12:24:47;;;;;;;;;;;;;;;24.04;47.80;100473.44;5094651;28;1897;-22
2022/06/25 12:27:12;;;;;;;;;;;;;;;24.09;46.94;100481.84;5081927;28;1043;-22
2022/06/25 12:29:37;;;;;;;;;;;;;;;24.76;47.71;100483.56;5086509;28;1135;-22
2022/06/25 12:32:03;;;;;;;;;;;;;;;25.25;47.17;100481.72;5088356;28;999;-22
2022/06/25 12:34:28;;;;;;;;;;;;;;;25.75;43.82;100492.19;5090153;28;957;-22
2022/06/25 12:36:54;;;;;;;;;;;;;;;25.49;47.23;100493.38;5126102;27;1658;-23
2022/06/25 12:39:28;;;;;;;;;;;;;;;25.24;47.56;100490.81;5086558;28;976;-23
2022/06/25 12:41:54;;;;;;;;;;;;;;;25.73;40.75;100492.38;5085356;28;988;-23
2022/06/25 12:44:19;;;;;;;;;;;;;;;25.61;48.55;100504.56;5093814;28;1898;-23
2022/06/25 12:46:57;;;;;;;;;;;;;;;25.25;46.70;100492.47;5085311;28;968;-23
2022/06/25 12:49:22;;;;;;;;;;;;;;;24.67;46.92;100497.03;5082398;28;1056;-22
2022/06/25 12:51:48;;;;;;;;;;;;;;;24.64;46.19;100496.59;5086072;28;973;-23
2022/06/25 12:54:13;;;;;;;;;;;;;;;24.14;48.56;100502.00;5080757;28;1047;-23
2022/06/25 12:56:38;;;;;;;;;;;;;;;23.90;49.09;100501.84;5079988;28;1155;-23
2022/06/25 12:59:06;;;;;;;;;;;;;;;23.90;49.51;100504.53;5083209;28;1107;-22
2022/06/25 13:01:33;;;;;;;;;;;;;;;23.89;52.82;100492.09;5092475;28;964;-23
2022/06/25 13:04:00;;;;;;;;;;;;;;;24.82;49.21;100510.63;5081260;28;1971;-23
2022/06/25 13:06:25;;;;;;;;;;;;;;;24.43;52.62;100506.03;5082924;28;1138;-22